This is the latest recevied weather packets stored in our database for station/object SP6RGZ-1. If no packets are shown the sender has not sent any weather packets the latest 10 day(s).
| Time | Temp. | Humidity | Pressure | Rain* | Wind** | Luminosity | Snow |
|---|---|---|---|---|---|---|---|
| 1787988602 | 23.89° C | 84% | 994.4 hPa | - | - | - | - |
| 1787987702 | 22.78° C | 87% | 994.6 hPa | - | - | - | - |
| 1787986802 | 22.22° C | 90% | 994.4 hPa | - | - | - | - |
| 1787985902 | 22.22° C | 97% | 994.4 hPa | - | - | - | - |
| 1787961602 | 22.78° C | 89% | 992.6 hPa | - | - | - | - |
| 1787960702 | 23.33° C | 71% | 992.4 hPa | - | - | - | - |
| 1787959802 | 23.33° C | 69% | 991.2 hPa | - | - | - | - |
| 1787958902 | 23.33° C | 67% | 991.5 hPa | - | - | - | - |
| 1787958002 | 23.33° C | 66% | 991.3 hPa | - | - | - | - |
| 1787957102 | 23.33° C | 65% | 991.3 hPa | - | - | - | - |
| 1787956202 | 23.33° C | 64% | 991.2 hPa | - | - | - | - |
| 1787955302 | 23.89° C | 63% | 991.2 hPa | - | - | - | - |
| 1787954402 | 23.89° C | 62% | 991.5 hPa | - | - | - | - |
| 1787953501 | 23.89° C | 62% | 991.8 hPa | - | - | - | - |
| 1787952602 | 23.89° C | 62% | 991.9 hPa | - | - | - | - |
| 1787951702 | 23.89° C | 61% | 992.1 hPa | - | - | - | - |
| 1787950802 | 23.89° C | 61% | 992.5 hPa | - | - | - | - |
| 1787949902 | 23.89° C | 62% | 992.5 hPa | - | - | - | - |
| 1787949002 | 23.89° C | 63% | 992.5 hPa | - | - | - | - |
| 1787948102 | 23.89° C | 66% | 992.5 hPa | - | - | - | - |
| 1787947202 | 23.89° C | 65% | 992.5 hPa | - | - | - | - |
| 1787946302 | 24.44° C | 64% | 992.6 hPa | - | - | - | - |
| 1787945402 | 24.44° C | 64% | 992.7 hPa | - | - | - | - |
| 1787944502 | 25° C | 63% | 993 hPa | - | - | - | - |
| 1787943603 | 25° C | 62% | 992.9 hPa | - | - | - | - |
* Rain since midnight (hover to see other rain measurements)
** Current wind speed in m/s (hover to see current wind gust speed)